sensor_id;sensor_type;location;lat;lon;timestamp;pressure;altitude;pressure_sealevel;temperature;humidity
34177;BME280;20450;49.074;9.158;2023-05-10T00:00:15;99117.16;;;15.42;90.54
34177;BME280;20450;49.074;9.158;2023-05-10T00:02:43;99119.88;;;15.42;89.71
34177;BME280;20450;49.074;9.158;2023-05-10T00:05:10;99114.44;;;15.42;89.91
34177;BME280;20450;49.074;9.158;2023-05-10T00:07:36;99125.34;;;15.47;89.19
34177;BME280;20450;49.074;9.158;2023-05-10T00:10:04;99119.63;;;15.44;89.26
34177;BME280;20450;49.074;9.158;2023-05-10T00:12:32;99118.59;;;15.50;89.13
34177;BME280;20450;49.074;9.158;2023-05-10T00:14:58;99121.31;;;15.50;88.99
34177;BME280;20450;49.074;9.158;2023-05-10T00:17:27;99114.28;;;15.54;89.30
34177;BME280;20450;49.074;9.158;2023-05-10T00:19:54;99120.22;;;15.51;88.12
34177;BME280;20450;49.074;9.158;2023-05-10T00:22:21;99119.91;;;15.47;87.75
34177;BME280;20450;49.074;9.158;2023-05-10T00:24:48;99120.41;;;15.39;88.40
34177;BME280;20450;49.074;9.158;2023-05-10T00:27:15;99124.75;;;15.40;87.71
34177;BME280;20450;49.074;9.158;2023-05-10T00:29:43;99126.97;;;15.43;87.63
34177;BME280;20450;49.074;9.158;2023-05-10T00:32:10;99120.41;;;15.39;87.49
34177;BME280;20450;49.074;9.158;2023-05-10T00:34:38;99124.50;;;15.42;87.88
34177;BME280;20450;49.074;9.158;2023-05-10T00:37:05;99127.22;;;15.42;87.71
34177;BME280;20450;49.074;9.158;2023-05-10T00:39:32;99120.94;;;15.41;87.65
34177;BME280;20450;49.074;9.158;2023-05-10T00:41:59;99121.53;;;15.43;87.17
34177;BME280;20450;49.074;9.158;2023-05-10T00:44:26;99113.50;;;15.32;86.96
34177;BME280;20450;49.074;9.158;2023-05-10T00:46:53;99132.56;;;15.32;86.13
34177;BME280;20450;49.074;9.158;2023-05-10T00:49:21;99125.47;;;15.31;86.78
34177;BME280;20450;49.074;9.158;2023-05-10T00:51:50;99128.19;;;15.31;86.76
34177;BME280;20450;49.074;9.158;2023-05-10T00:54:17;99123.56;;;15.31;86.89
34177;BME280;20450;49.074;9.158;2023-05-10T00:56:44;99127.94;;;15.32;86.77
34177;BME280;20450;49.074;9.158;2023-05-10T00:59:11;99135.53;;;15.30;86.75
34177;BME280;20450;49.074;9.158;2023-05-10T01:01:38;99135.59;;;15.35;86.65
34177;BME280;20450;49.074;9.158;2023-05-10T01:04:05;99133.06;;;15.29;85.93
34177;BME280;20450;49.074;9.158;2023-05-10T01:06:33;99140.97;;;15.30;86.36
34177;BME280;20450;49.074;9.158;2023-05-10T01:09:01;99142.59;;;15.31;86.42
34177;BME280;20450;49.074;9.158;2023-05-10T01:11:28;99151.34;;;15.33;85.87
34177;BME280;20450;49.074;9.158;2023-05-10T01:13:56;99147.28;;;15.36;85.29
34177;BME280;20450;49.074;9.158;2023-05-10T01:16:26;99149.66;;;15.27;84.72
34177;BME280;20450;49.074;9.158;2023-05-10T01:18:55;99146.31;;;15.20;85.57
34177;BME280;20450;49.074;9.158;2023-05-10T01:21:27;99149.91;;;15.26;85.78
34177;BME280;20450;49.074;9.158;2023-05-10T01:24:40;99154.50;;;15.25;85.12
34177;BME280;20450;49.074;9.158;2023-05-10T01:27:46;99154.78;;;15.24;85.23
34177;BME280;20450;49.074;9.158;2023-05-10T01:33:43;99161.63;;;15.26;84.45
34177;BME280;20450;49.074;9.158;2023-05-10T01:36:20;99156.38;;;15.20;84.80
34177;BME280;20450;49.074;9.158;2023-05-10T01:39:02;99161.50;;;15.16;85.00
34177;BME280;20450;49.074;9.158;2023-05-10T01:41:42;99168.63;;;15.22;85.21
34177;BME280;20450;49.074;9.158;2023-05-10T01:44:20;99170.56;;;15.22;84.30
34177;BME280;20450;49.074;9.158;2023-05-10T01:47:00;99176.00;;;15.22;84.36
34177;BME280;20450;49.074;9.158;2023-05-10T01:49:37;99170.28;;;15.23;84.42
34177;BME280;20450;49.074;9.158;2023-05-10T01:52:10;99178.47;;;15.23;84.48
34177;BME280;20450;49.074;9.158;2023-05-10T01:54:44;99182.88;;;15.29;84.20
34177;BME280;20450;49.074;9.158;2023-05-10T01:57:17;99174.97;;;15.28;84.31
34177;BME280;20450;49.074;9.158;2023-05-10T01:59:50;99182.31;;;15.27;84.07
34177;BME280;20450;49.074;9.158;2023-05-10T02:02:20;99176.84;;;15.27;83.85
34177;BME280;20450;49.074;9.158;2023-05-10T02:04:49;99183.91;;;15.23;83.71
34177;BME280;20450;49.074;9.158;2023-05-10T02:07:18;99182.81;;;15.24;83.89
34177;BME280;20450;49.074;9.158;2023-05-10T02:09:47;99181.88;;;15.14;83.62
34177;BME280;20450;49.074;9.158;2023-05-10T02:12:15;99187.66;;;15.17;83.17
34177;BME280;20450;49.074;9.158;2023-05-10T02:14:45;99189.28;;;15.18;83.32
34177;BME280;20450;49.074;9.158;2023-05-10T02:17:14;99190.88;;;15.14;83.20
34177;BME280;20450;49.074;9.158;2023-05-10T02:19:43;99192.56;;;15.20;83.38
34177;BME280;20450;49.074;9.158;2023-05-10T02:22:13;99197.50;;;15.23;83.26
34177;BME280;20450;49.074;9.158;2023-05-10T02:24:43;99200.78;;;15.25;83.07
34177;BME280;20450;49.074;9.158;2023-05-10T02:27:14;99193.94;;;15.23;83.04
34177;BME280;20450;49.074;9.158;2023-05-10T02:29:43;99201.03;;;15.24;82.64
34177;BME280;20450;49.074;9.158;2023-05-10T02:32:12;99199.41;;;15.23;83.06
34177;BME280;20450;49.074;9.158;2023-05-10T02:34:40;99193.63;;;15.19;83.33
34177;BME280;20450;49.074;9.158;2023-05-10T02:37:09;99203.72;;;15.19;83.41
34177;BME280;20450;49.074;9.158;2023-05-10T02:39:38;99196.94;;;15.21;83.04
34177;BME280;20450;49.074;9.158;2023-05-10T02:42:06;99199.91;;;15.20;83.39
34177;BME280;20450;49.074;9.158;2023-05-10T02:44:36;99200.66;;;15.15;82.70
34177;BME280;20450;49.074;9.158;2023-05-10T02:47:05;99212.69;;;15.19;83.02
34177;BME280;20450;49.074;9.158;2023-05-10T02:49:32;99203.72;;;15.19;82.93
34177;BME280;20450;49.074;9.158;2023-05-10T02:52:01;99209.94;;;15.19;83.15
34177;BME280;20450;49.074;9.158;2023-05-10T02:54:37;99214.59;;;15.19;83.04
34177;BME280;20450;49.074;9.158;2023-05-10T02:57:15;99212.41;;;15.21;83.06
34177;BME280;20450;49.074;9.158;2023-05-10T02:59:43;99214.34;;;15.20;82.79
34177;BME280;20450;49.074;9.158;2023-05-10T03:02:11;99219.53;;;15.22;82.69
34177;BME280;20450;49.074;9.158;2023-05-10T03:04:39;99214.09;;;15.22;82.65
34177;BME280;20450;49.074;9.158;2023-05-10T03:12:04;99219.09;;;15.08;82.77
34177;BME280;20450;49.074;9.158;2023-05-10T03:14:45;99206.50;;;15.02;83.18
34177;BME280;20450;49.074;9.158;2023-05-10T03:17:23;99206.75;;;15.01;83.19
34177;BME280;20450;49.074;9.158;2023-05-10T03:19:58;99214.59;;;14.97;83.48
34177;BME280;20450;49.074;9.158;2023-05-10T03:22:32;99219.78;;;14.99;83.70
34177;BME280;20450;49.074;9.158;2023-05-10T03:25:06;99226.66;;;15.06;84.04
34177;BME280;20450;49.074;9.158;2023-05-10T03:27:39;99223.69;;;15.08;83.78
34177;BME280;20450;49.074;9.158;2023-05-10T03:30:08;99222.34;;;15.10;83.53
34177;BME280;20450;49.074;9.158;2023-05-10T03:32:38;99224.53;;;15.08;83.45
34177;BME280;20450;49.074;9.158;2023-05-10T03:35:07;99225.34;;;15.09;83.76
34177;BME280;20450;49.074;9.158;2023-05-10T03:37:34;99221.34;;;15.16;84.44
34177;BME280;20450;49.074;9.158;2023-05-10T03:40:01;99227.50;;;15.07;84.55
34177;BME280;20450;49.074;9.158;2023-05-10T03:42:30;99238.06;;;15.03;84.82
34177;BME280;20450;49.074;9.158;2023-05-10T03:44:58;99234.75;;;15.01;84.59
34177;BME280;20450;49.074;9.158;2023-05-10T03:47:25;99237.81;;;15.05;85.38
34177;BME280;20450;49.074;9.158;2023-05-10T03:49:52;99236.94;;;14.99;84.88
34177;BME280;20450;49.074;9.158;2023-05-10T03:52:20;99234.72;;;14.96;85.06
34177;BME280;20450;49.074;9.158;2023-05-10T03:54:49;99235.72;;;14.90;85.88
34177;BME280;20450;49.074;9.158;2023-05-10T03:57:16;99241.47;;;14.72;86.16
34177;BME280;20450;49.074;9.158;2023-05-10T03:59:43;99244.06;;;14.84;86.72
34177;BME280;20450;49.074;9.158;2023-05-10T04:02:11;99241.09;;;14.85;86.49
34177;BME280;20450;49.074;9.158;2023-05-10T04:04:38;99234.97;;;14.95;86.57
34177;BME280;20450;49.074;9.158;2023-05-10T04:07:05;99240.72;;;14.98;86.15
34177;BME280;20450;49.074;9.158;2023-05-10T04:09:33;99238.06;;;15.03;85.87
34177;BME280;20450;49.074;9.158;2023-05-10T04:12:00;99245.13;;;15.04;85.54
34177;BME280;20450;49.074;9.158;2023-05-10T04:14:27;99249.53;;;15.05;85.29
34177;BME280;20450;49.074;9.158;2023-05-10T04:16:53;99247.59;;;15.06;85.72
34177;BME280;20450;49.074;9.158;2023-05-10T04:19:22;99246.59;;;15.12;85.58
34177;BME280;20450;49.074;9.158;2023-05-10T04:21:50;99248.00;;;15.14;84.99
34177;BME280;20450;49.074;9.158;2023-05-10T04:24:16;99244.78;;;15.17;85.00
34177;BME280;20450;49.074;9.158;2023-05-10T04:26:43;99245.56;;;15.18;85.30
34177;BME280;20450;49.074;9.158;2023-05-10T04:29:11;99247.00;;;15.20;85.05
34177;BME280;20450;49.074;9.158;2023-05-10T04:31:38;99243.75;;;15.23;84.99
34177;BME280;20450;49.074;9.158;2023-05-10T04:34:05;99253.56;;;15.24;85.06
34177;BME280;20450;49.074;9.158;2023-05-10T04:36:33;99254.66;;;15.23;84.82
34177;BME280;20450;49.074;9.158;2023-05-10T04:39:00;99249.22;;;15.23;85.02
34177;BME280;20450;49.074;9.158;2023-05-10T04:41:27;99251.97;;;15.28;84.14
34177;BME280;20450;49.074;9.158;2023-05-10T04:43:55;99257.47;;;15.33;84.18
34177;BME280;20450;49.074;9.158;2023-05-10T04:46:22;99261.84;;;15.34;83.94
34177;BME280;20450;49.074;9.158;2023-05-10T04:48:50;99261.84;;;15.34;83.26
34177;BME280;20450;49.074;9.158;2023-05-10T04:51:17;99264.16;;;15.42;83.71
34177;BME280;20450;49.074;9.158;2023-05-10T04:53:45;99266.28;;;15.40;83.17
34177;BME280;20450;49.074;9.158;2023-05-10T04:56:27;99265.78;;;15.43;82.72
34177;BME280;20450;49.074;9.158;2023-05-10T04:58:54;99272.34;;;15.47;82.95
34177;BME280;20450;49.074;9.158;2023-05-10T05:01:21;99273.69;;;15.45;82.12
34177;BME280;20450;49.074;9.158;2023-05-10T05:03:48;99276.53;;;15.33;82.81
34177;BME280;20450;49.074;9.158;2023-05-10T05:06:15;99282.06;;;15.38;83.01
34177;BME280;20450;49.074;9.158;2023-05-10T05:08:42;99287.56;;;15.43;82.95
34177;BME280;20450;49.074;9.158;2023-05-10T05:11:10;99287.78;;;15.37;82.51
34177;BME280;20450;49.074;9.158;2023-05-10T05:13:38;99289.41;;;15.38;82.67
34177;BME280;20450;49.074;9.158;2023-05-10T05:16:06;99294.13;;;15.47;82.57
34177;BME280;20450;49.074;9.158;2023-05-10T05:18:33;99287.91;;;15.52;82.44
34177;BME280;20450;49.074;9.158;2023-05-10T05:21:00;99289.38;;;15.59;81.77
34177;BME280;20450;49.074;9.158;2023-05-10T05:23:27;99297.31;;;15.39;81.83
34177;BME280;20450;49.074;9.158;2023-05-10T05:25:54;99302.81;;;15.44;81.90
34177;BME280;20450;49.074;9.158;2023-05-10T05:28:22;99301.75;;;15.45;81.31
34177;BME280;20450;49.074;9.158;2023-05-10T05:30:49;99301.50;;;15.47;82.20
34177;BME280;20450;49.074;9.158;2023-05-10T05:33:16;99304.81;;;15.54;81.80
34177;BME280;20450;49.074;9.158;2023-05-10T05:35:43;99303.88;;;15.65;82.26
34177;BME280;20450;49.074;9.158;2023-05-10T05:38:09;99303.91;;;15.70;81.50
34177;BME280;20450;49.074;9.158;2023-05-10T05:40:36;99304.84;;;15.81;81.49
34177;BME280;20450;49.074;9.158;2023-05-10T05:43:03;99306.03;;;15.90;81.23
34177;BME280;20450;49.074;9.158;2023-05-10T05:45:31;99307.91;;;15.89;81.06
34177;BME280;20450;49.074;9.158;2023-05-10T05:47:58;99298.97;;;15.94;80.74
34177;BME280;20450;49.074;9.158;2023-05-10T05:50:26;99303.72;;;16.03;80.57
34177;BME280;20450;49.074;9.158;2023-05-10T05:52:52;99304.56;;;16.04;80.89
34177;BME280;20450;49.074;9.158;2023-05-10T05:55:20;99305.22;;;16.16;80.61
34177;BME280;20450;49.074;9.158;2023-05-10T05:57:50;99303.84;;;16.18;79.74
34177;BME280;20450;49.074;9.158;2023-05-10T06:00:17;99304.78;;;16.29;79.44
34177;BME280;20450;49.074;9.158;2023-05-10T06:02:46;99304.53;;;16.35;79.71
34177;BME280;20450;49.074;9.158;2023-05-10T06:05:14;99307.56;;;16.39;79.83
34177;BME280;20450;49.074;9.158;2023-05-10T06:07:43;99307.56;;;16.39;79.01
34177;BME280;20450;49.074;9.158;2023-05-10T06:10:10;99310.66;;;16.47;78.69
34177;BME280;20450;49.074;9.158;2023-05-10T06:12:37;99314.56;;;16.56;77.96
34177;BME280;20450;49.074;9.158;2023-05-10T06:15:04;99307.84;;;16.69;77.96
34177;BME280;20450;49.074;9.158;2023-05-10T06:17:32;99311.19;;;16.81;77.61
34177;BME280;20450;49.074;9.158;2023-05-10T06:20:01;99309.47;;;16.65;77.65
34177;BME280;20450;49.074;9.158;2023-05-10T06:22:28;99307.84;;;16.69;78.08
34177;BME280;20450;49.074;9.158;2023-05-10T06:24:55;99310.66;;;16.84;78.29
34177;BME280;20450;49.074;9.158;2023-05-10T06:27:22;99303.22;;;16.74;77.37
34177;BME280;20450;49.074;9.158;2023-05-10T06:29:49;99313.66;;;16.82;77.52
34177;BME280;20450;49.074;9.158;2023-05-10T06:32:24;99313.09;;;16.80;76.54
34177;BME280;20450;49.074;9.158;2023-05-10T06:34:52;99316.34;;;16.77;76.26
34177;BME280;20450;49.074;9.158;2023-05-10T06:37:20;99326.19;;;16.78;75.60
34177;BME280;20450;49.074;9.158;2023-05-10T06:39:48;99324.53;;;16.77;76.38
34177;BME280;20450;49.074;9.158;2023-05-10T06:42:16;99325.03;;;16.69;75.91
34177;BME280;20450;49.074;9.158;2023-05-10T06:44:45;99317.19;;;16.78;76.11
34177;BME280;20450;49.074;9.158;2023-05-10T06:47:12;99328.44;;;16.55;75.97
34177;BME280;20450;49.074;9.158;2023-05-10T06:49:39;99333.44;;;16.63;77.04
34177;BME280;20450;49.074;9.158;2023-05-10T06:52:06;99330.97;;;16.61;75.98
34177;BME280;20450;49.074;9.158;2023-05-10T06:54:35;99335.97;;;16.74;76.20
34177;BME280;20450;49.074;9.158;2023-05-10T06:57:02;99338.16;;;16.77;75.23
34177;BME280;20450;49.074;9.158;2023-05-10T06:59:38;99347.38;;;16.66;74.94
34177;BME280;20450;49.074;9.158;2023-05-10T07:02:06;99339.53;;;16.43;75.03
34177;BME280;20450;49.074;9.158;2023-05-10T07:04:32;99346.31;;;16.41;75.58
34177;BME280;20450;49.074;9.158;2023-05-10T07:06:59;99354.22;;;16.42;75.42
34177;BME280;20450;49.074;9.158;2023-05-10T07:09:27;99357.16;;;16.36;75.76
34177;BME280;20450;49.074;9.158;2023-05-10T07:11:56;99354.28;;;16.47;75.85
34177;BME280;20450;49.074;9.158;2023-05-10T07:16:55;99357.28;;;16.46;74.49
34177;BME280;20450;49.074;9.158;2023-05-10T07:19:22;99345.38;;;16.57;74.72
34177;BME280;20450;49.074;9.158;2023-05-10T07:21:49;99357.13;;;16.31;74.64
34177;BME280;20450;49.074;9.158;2023-05-10T07:24:16;99361.22;;;16.33;75.42
34177;BME280;20450;49.074;9.158;2023-05-10T07:26:43;99356.97;;;16.42;74.59
34177;BME280;20450;49.074;9.158;2023-05-10T07:29:12;99359.88;;;16.36;74.25
34177;BME280;20450;49.074;9.158;2023-05-10T07:31:39;99362.22;;;16.49;74.26
34177;BME280;20450;49.074;9.158;2023-05-10T07:34:06;99366.53;;;16.45;73.31
34177;BME280;20450;49.074;9.158;2023-05-10T07:36:33;99368.75;;;16.48;74.02
34177;BME280;20450;49.074;9.158;2023-05-10T07:39:00;99363.88;;;16.50;73.33
34177;BME280;20450;49.074;9.158;2023-05-10T07:41:27;99355.44;;;16.51;73.14
34177;BME280;20450;49.074;9.158;2023-05-10T07:43:54;99362.06;;;16.60;72.61
34177;BME280;20450;49.074;9.158;2023-05-10T07:46:22;99358.03;;;16.73;72.55
34177;BME280;20450;49.074;9.158;2023-05-10T07:48:49;99363.81;;;16.76;72.34
34177;BME280;20450;49.074;9.158;2023-05-10T07:51:16;99366.91;;;16.90;72.01
34177;BME280;20450;49.074;9.158;2023-05-10T07:53:43;99373.81;;;17.02;71.85
34177;BME280;20450;49.074;9.158;2023-05-10T07:56:21;99366.78;;;17.11;71.78
34177;BME280;20450;49.074;9.158;2023-05-10T07:58:50;99365.44;;;17.14;71.43
34177;BME280;20450;49.074;9.158;2023-05-10T08:01:17;99373.69;;;17.29;71.17
34177;BME280;20450;49.074;9.158;2023-05-10T08:03:46;99366.81;;;17.16;71.07
34177;BME280;20450;49.074;9.158;2023-05-10T08:06:13;99373.81;;;17.44;70.54
34177;BME280;20450;49.074;9.158;2023-05-10T08:08:41;99368.38;;;17.49;69.94
34177;BME280;20450;49.074;9.158;2023-05-10T08:11:09;99375.47;;;17.50;69.93
34177;BME280;20450;49.074;9.158;2023-05-10T08:13:35;99371.44;;;17.16;69.98
34177;BME280;20450;49.074;9.158;2023-05-10T08:16:02;99376.78;;;16.96;70.68
34177;BME280;20450;49.074;9.158;2023-05-10T08:18:29;99374.00;;;16.91;71.42
34177;BME280;20450;49.074;9.158;2023-05-10T08:20:58;99379.97;;;16.88;72.10
34177;BME280;20450;49.074;9.158;2023-05-10T08:23:25;99382.25;;;16.96;71.81
34177;BME280;20450;49.074;9.158;2023-05-10T08:25:53;99380.63;;;17.00;71.47
34177;BME280;20450;49.074;9.158;2023-05-10T08:28:20;99386.88;;;16.95;70.85
34177;BME280;20450;49.074;9.158;2023-05-10T08:30:47;99388.84;;;17.05;70.98
34177;BME280;20450;49.074;9.158;2023-05-10T08:33:17;99384.03;;;17.22;70.93
34177;BME280;20450;49.074;9.158;2023-05-10T08:35:44;99391.78;;;17.40;70.56
34177;BME280;20450;49.074;9.158;2023-05-10T08:38:12;99392.38;;;17.47;70.49
34177;BME280;20450;49.074;9.158;2023-05-10T08:40:41;99387.28;;;17.19;70.38
34177;BME280;20450;49.074;9.158;2023-05-10T08:43:11;99401.94;;;17.03;70.48
34177;BME280;20450;49.074;9.158;2023-05-10T08:45:42;99397.56;;;17.07;72.31
34177;BME280;20450;49.074;9.158;2023-05-10T08:48:10;99401.13;;;17.07;72.80
34177;BME280;20450;49.074;9.158;2023-05-10T08:50:39;99401.34;;;17.01;73.58
34177;BME280;20450;49.074;9.158;2023-05-10T08:53:09;99403.44;;;16.89;73.88
34177;BME280;20450;49.074;9.158;2023-05-10T08:55:40;99412.47;;;16.89;74.57
34177;BME280;20450;49.074;9.158;2023-05-10T08:58:08;99402.91;;;16.87;74.84
34177;BME280;20450;49.074;9.158;2023-05-10T09:00:36;99407.53;;;16.86;75.19
34177;BME280;20450;49.074;9.158;2023-05-10T09:03:05;99419.19;;;16.77;75.30
34177;BME280;20450;49.074;9.158;2023-05-10T09:05:33;99409.78;;;16.94;75.52
34177;BME280;20450;49.074;9.158;2023-05-10T09:08:01;99412.59;;;17.04;74.40
34177;BME280;20450;49.074;9.158;2023-05-10T09:10:29;99413.47;;;17.15;73.70
34177;BME280;20450;49.074;9.158;2023-05-10T09:12:58;99407.06;;;17.36;73.36
34177;BME280;20450;49.074;9.158;2023-05-10T09:15:26;99415.06;;;17.47;72.65
34177;BME280;20450;49.074;9.158;2023-05-10T09:17:54;99415.38;;;17.56;71.51
34177;BME280;20450;49.074;9.158;2023-05-10T09:20:25;99416.59;;;17.80;70.92
34177;BME280;20450;49.074;9.158;2023-05-10T09:22:52;99422.31;;;17.79;70.61
34177;BME280;20450;49.074;9.158;2023-05-10T09:25:19;99422.19;;;18.10;70.59
34177;BME280;20450;49.074;9.158;2023-05-10T09:27:49;99414.53;;;18.27;69.14
34177;BME280;20450;49.074;9.158;2023-05-10T09:30:17;99427.13;;;18.18;68.52
34177;BME280;20450;49.074;9.158;2023-05-10T09:32:53;99425.47;;;18.12;67.43
34177;BME280;20450;49.074;9.158;2023-05-10T09:35:22;99428.97;;;18.03;68.45
34177;BME280;20450;49.074;9.158;2023-05-10T09:37:56;99439.88;;;17.98;67.86
34177;BME280;20450;49.074;9.158;2023-05-10T09:40:25;99429.75;;;17.88;68.47
34177;BME280;20450;49.074;9.158;2023-05-10T09:42:57;99438.75;;;17.89;69.57
34177;BME280;20450;49.074;9.158;2023-05-10T09:45:27;99435.78;;;17.95;68.54
34177;BME280;20450;49.074;9.158;2023-05-10T09:47:57;99424.03;;;17.95;67.54
34177;BME280;20450;49.074;9.158;2023-05-10T09:50:26;99428.72;;;18.04;67.83
34177;BME280;20450;49.074;9.158;2023-05-10T09:52:56;99432.09;;;18.31;67.05
34177;BME280;20450;49.074;9.158;2023-05-10T09:55:26;99440.38;;;18.56;66.33
34177;BME280;20450;49.074;9.158;2023-05-10T09:58:07;99427.25;;;18.88;65.61
34177;BME280;20450;49.074;9.158;2023-05-10T10:00:35;99440.66;;;19.20;64.54
34177;BME280;20450;49.074;9.158;2023-05-10T10:03:04;99429.94;;;19.48;63.56
34177;BME280;20450;49.074;9.158;2023-05-10T10:05:34;99434.06;;;19.41;63.31
34177;BME280;20450;49.074;9.158;2023-05-10T10:08:04;99442.56;;;18.94;63.35
34177;BME280;20450;49.074;9.158;2023-05-10T10:10:33;99446.41;;;18.58;62.61
34177;BME280;20450;49.074;9.158;2023-05-10T10:13:01;99444.75;;;17.86;65.53
34177;BME280;20450;49.074;9.158;2023-05-10T10:15:31;99449.34;;;17.28;69.43
34177;BME280;20450;49.074;9.158;2023-05-10T10:18:01;99464.06;;;16.64;73.56
34177;BME280;20450;49.074;9.158;2023-05-10T10:20:28;99463.88;;;16.44;73.30
34177;BME280;20450;49.074;9.158;2023-05-10T10:22:55;99469.78;;;16.41;74.75
34177;BME280;20450;49.074;9.158;2023-05-10T10:25:22;99460.56;;;16.42;75.13
34177;BME280;20450;49.074;9.158;2023-05-10T10:28:01;99464.47;;;16.25;74.62
34177;BME280;20450;49.074;9.158;2023-05-10T10:30:45;99464.06;;;16.38;75.34
34177;BME280;20450;49.074;9.158;2023-05-10T10:33:36;99452.81;;;16.56;74.77
34177;BME280;20450;49.074;9.158;2023-05-10T10:36:15;99460.84;;;16.67;74.40
34177;BME280;20450;49.074;9.158;2023-05-10T10:38:58;99452.00;;;16.87;73.47
34177;BME280;20450;49.074;9.158;2023-05-10T10:41:29;99452.09;;;16.97;72.76
34177;BME280;20450;49.074;9.158;2023-05-10T10:44:36;99438.25;;;17.08;72.77
34177;BME280;20450;49.074;9.158;2023-05-10T10:47:23;99442.13;;;17.12;72.32
34177;BME280;20450;49.074;9.158;2023-05-10T10:49:52;99445.91;;;17.11;73.20
34177;BME280;20450;49.074;9.158;2023-05-10T10:52:31;99443.59;;;17.30;72.55
34177;BME280;20450;49.074;9.158;2023-05-10T10:55:02;99434.84;;;17.28;71.46
34177;BME280;20450;49.074;9.158;2023-05-10T10:57:33;99438.94;;;17.30;71.89
34177;BME280;20450;49.074;9.158;2023-05-10T11:00:24;99449.91;;;17.35;72.77
34177;BME280;20450;49.074;9.158;2023-05-10T11:02:57;99447.13;;;17.30;72.55
34177;BME280;20450;49.074;9.158;2023-05-10T11:05:37;99445.25;;;17.31;71.71
34177;BME280;20450;49.074;9.158;2023-05-10T11:08:11;99447.59;;;17.12;71.99
34177;BME280;20450;49.074;9.158;2023-05-10T11:11:03;99444.84;;;17.12;71.64
34177;BME280;20450;49.074;9.158;2023-05-10T11:13:34;99454.34;;;17.05;72.53
34177;BME280;20450;49.074;9.158;2023-05-10T11:16:13;99455.16;;;17.05;72.00
34177;BME280;20450;49.074;9.158;2023-05-10T11:18:57;99455.69;;;17.02;71.07
34177;BME280;20450;49.074;9.158;2023-05-10T11:21:27;99453.69;;;16.93;71.38
34177;BME280;20450;49.074;9.158;2023-05-10T11:23:57;99453.81;;;17.08;71.72
34177;BME280;20450;49.074;9.158;2023-05-10T11:26:29;99454.09;;;17.11;71.16
34177;BME280;20450;49.074;9.158;2023-05-10T11:28:57;99452.31;;;17.27;70.63
34177;BME280;20450;49.074;9.158;2023-05-10T11:31:25;99454.53;;;17.30;71.64
34177;BME280;20450;49.074;9.158;2023-05-10T11:33:55;99455.81;;;17.54;70.99
34177;BME280;20450;49.074;9.158;2023-05-10T11:36:24;99444.59;;;17.50;70.70
34177;BME280;20450;49.074;9.158;2023-05-10T11:38:54;99442.47;;;17.63;70.01
34177;BME280;20450;49.074;9.158;2023-05-10T11:41:23;99450.97;;;17.66;69.25
34177;BME280;20450;49.074;9.158;2023-05-10T11:43:53;99452.63;;;17.72;68.42
34177;BME280;20450;49.074;9.158;2023-05-10T11:46:22;99454.81;;;17.75;66.57
34177;BME280;20450;49.074;9.158;2023-05-10T11:48:52;99451.63;;;17.88;65.49
34177;BME280;20450;49.074;9.158;2023-05-10T11:51:24;99452.50;;;18.09;64.81
34177;BME280;20450;49.074;9.158;2023-05-10T11:53:55;99456.75;;;18.46;64.92
34177;BME280;20450;49.074;9.158;2023-05-10T11:56:24;99451.28;;;18.51;64.00
34177;BME280;20450;49.074;9.158;2023-05-10T11:58:53;99463.25;;;18.35;65.65
34177;BME280;20450;49.074;9.158;2023-05-10T12:01:23;99462.16;;;18.36;64.54
34177;BME280;20450;49.074;9.158;2023-05-10T12:03:51;99462.09;;;18.21;64.86
34177;BME280;20450;49.074;9.158;2023-05-10T12:06:22;99457.75;;;18.20;62.18
34177;BME280;20450;49.074;9.158;2023-05-10T12:08:54;99465.25;;;18.45;60.94
34177;BME280;20450;49.074;9.158;2023-05-10T12:11:25;99469.09;;;18.69;60.67
34177;BME280;20450;49.074;9.158;2023-05-10T12:13:53;99467.75;;;18.76;60.24
34177;BME280;20450;49.074;9.158;2023-05-10T12:16:23;99468.84;;;18.85;60.72
34177;BME280;20450;49.074;9.158;2023-05-10T12:18:52;99466.66;;;18.97;59.54
34177;BME280;20450;49.074;9.158;2023-05-10T12:21:21;99466.13;;;19.15;58.94
34177;BME280;20450;49.074;9.158;2023-05-10T12:23:50;99467.22;;;19.24;58.70
34177;BME280;20450;49.074;9.158;2023-05-10T12:26:21;99461.41;;;19.61;58.98
34177;BME280;20450;49.074;9.158;2023-05-10T12:28:49;99463.31;;;19.71;58.20
34177;BME280;20450;49.074;9.158;2023-05-10T12:31:16;99464.75;;;19.48;57.17
34177;BME280;20450;49.074;9.158;2023-05-10T12:33:44;99467.19;;;19.55;55.95
34177;BME280;20450;49.074;9.158;2023-05-10T12:36:15;99464.47;;;19.34;55.35
34177;BME280;20450;49.074;9.158;2023-05-10T12:38:44;99469.66;;;19.21;55.03
34177;BME280;20450;49.074;9.158;2023-05-10T12:41:14;99477.06;;;19.45;54.38
34177;BME280;20450;49.074;9.158;2023-05-10T12:43:45;99472.66;;;19.65;54.21
34177;BME280;20450;49.074;9.158;2023-05-10T12:46:13;99464.13;;;19.81;53.59
34177;BME280;20450;49.074;9.158;2023-05-10T12:48:42;99477.53;;;19.83;53.53
34177;BME280;20450;49.074;9.158;2023-05-10T12:51:10;99477.59;;;19.58;53.96
34177;BME280;20450;49.074;9.158;2023-05-10T12:53:39;99480.91;;;19.55;53.80
34177;BME280;20450;49.074;9.158;2023-05-10T12:59:20;99475.44;;;19.44;54.76
34177;BME280;20450;49.074;9.158;2023-05-10T13:01:47;99477.38;;;19.34;54.92
34177;BME280;20450;49.074;9.158;2023-05-10T13:04:14;99477.34;;;19.44;54.34
34177;BME280;20450;49.074;9.158;2023-05-10T13:06:41;99471.59;;;19.45;53.65
34177;BME280;20450;49.074;9.158;2023-05-10T13:09:08;99483.63;;;19.55;53.20
34177;BME280;20450;49.074;9.158;2023-05-10T13:11:35;99472.41;;;19.51;52.87
34177;BME280;20450;49.074;9.158;2023-05-10T13:14:03;99486.91;;;19.62;53.65
34177;BME280;20450;49.074;9.158;2023-05-10T13:16:30;99478.19;;;19.39;54.33
34177;BME280;20450;49.074;9.158;2023-05-10T13:18:58;99479.00;;;19.45;54.39
34177;BME280;20450;49.074;9.158;2023-05-10T13:21:25;99479.25;;;19.59;54.53
34177;BME280;20450;49.074;9.158;2023-05-10T13:23:52;99477.84;;;19.61;53.71
34177;BME280;20450;49.074;9.158;2023-05-10T13:26:20;99482.53;;;19.56;54.26